sensor_id;sensor_type;location;lat;lon;timestamp;P1;durP1;ratioP1;P2;durP2;ratioP2
8129;SDS011;4106;52.532;13.408;2022-09-03T00:00:25;1.10;;;1.00;;
8129;SDS011;4106;52.532;13.408;2022-09-03T00:02:58;0.90;;;0.90;;
8129;SDS011;4106;52.532;13.408;2022-09-03T00:05:25;0.80;;;0.80;;
8129;SDS011;4106;52.532;13.408;2022-09-03T00:07:59;1.12;;;1.10;;
8129;SDS011;4106;52.532;13.408;2022-09-03T00:10:28;0.90;;;0.80;;
8129;SDS011;4106;52.532;13.408;2022-09-03T00:12:55;0.90;;;0.90;;
8129;SDS011;4106;52.532;13.408;2022-09-03T00:15:22;0.70;;;0.70;;
8129;SDS011;4106;52.532;13.408;2022-09-03T00:17:51;0.70;;;0.70;;
8129;SDS011;4106;52.532;13.408;2022-09-03T00:20:33;0.88;;;0.88;;
8129;SDS011;4106;52.532;13.408;2022-09-03T00:23:00;0.85;;;0.85;;
8129;SDS011;4106;52.532;13.408;2022-09-03T00:25:28;0.93;;;0.93;;
8129;SDS011;4106;52.532;13.408;2022-09-03T00:27:56;1.05;;;0.90;;
8129;SDS011;4106;52.532;13.408;2022-09-03T00:30:22;0.95;;;0.95;;
8129;SDS011;4106;52.532;13.408;2022-09-03T00:32:54;2.65;;;0.90;;
8129;SDS011;4106;52.532;13.408;2022-09-03T00:35:24;1.80;;;1.00;;
8129;SDS011;4106;52.532;13.408;2022-09-03T00:37:51;0.90;;;0.90;;
8129;SDS011;4106;52.532;13.408;2022-09-03T00:40:54;0.90;;;0.90;;
8129;SDS011;4106;52.532;13.408;2022-09-03T00:43:09;0.70;;;0.70;;
8129;SDS011;4106;52.532;13.408;2022-09-03T00:48:20;2.95;;;1.10;;
8129;SDS011;4106;52.532;13.408;2022-09-03T00:51:24;0.80;;;0.80;;
8129;SDS011;4106;52.532;13.408;2022-09-03T00:53:55;0.98;;;0.90;;
8129;SDS011;4106;52.532;13.408;2022-09-03T00:59:16;1.95;;;0.70;;
8129;SDS011;4106;52.532;13.408;2022-09-03T01:01:47;0.80;;;0.80;;
8129;SDS011;4106;52.532;13.408;2022-09-03T01:04:21;0.70;;;0.70;;
8129;SDS011;4106;52.532;13.408;2022-09-03T01:07:03;1.95;;;1.00;;
8129;SDS011;4106;52.532;13.408;2022-09-03T01:09:43;1.10;;;1.00;;
8129;SDS011;4106;52.532;13.408;2022-09-03T01:12:20;0.80;;;0.80;;
8129;SDS011;4106;52.532;13.408;2022-09-03T01:17:35;1.05;;;1.05;;
8129;SDS011;4106;52.532;13.408;2022-09-03T01:20:06;0.82;;;0.80;;
8129;SDS011;4106;52.532;13.408;2022-09-03T01:25:11;1.20;;;1.10;;
8129;SDS011;4106;52.532;13.408;2022-09-03T01:27:43;0.75;;;0.75;;
8129;SDS011;4106;52.532;13.408;2022-09-03T01:30:08;0.60;;;0.60;;
8129;SDS011;4106;52.532;13.408;2022-09-03T01:32:44;0.75;;;0.75;;
8129;SDS011;4106;52.532;13.408;2022-09-03T01:35:37;0.90;;;0.90;;
8129;SDS011;4106;52.532;13.408;2022-09-03T01:38:10;0.65;;;0.65;;
8129;SDS011;4106;52.532;13.408;2022-09-03T01:40:56;0.88;;;0.88;;
8129;SDS011;4106;52.532;13.408;2022-09-03T01:43:40;1.73;;;0.70;;
8129;SDS011;4106;52.532;13.408;2022-09-03T01:46:09;0.80;;;0.80;;
8129;SDS011;4106;52.532;13.408;2022-09-03T01:48:43;1.00;;;0.88;;
8129;SDS011;4106;52.532;13.408;2022-09-03T01:51:10;1.00;;;1.00;;
8129;SDS011;4106;52.532;13.408;2022-09-03T01:59:37;0.90;;;0.90;;
8129;SDS011;4106;52.532;13.408;2022-09-03T02:02:06;0.88;;;0.88;;
8129;SDS011;4106;52.532;13.408;2022-09-03T02:04:32;0.90;;;0.90;;
8129;SDS011;4106;52.532;13.408;2022-09-03T02:07:00;0.95;;;0.95;;
8129;SDS011;4106;52.532;13.408;2022-09-03T02:09:30;1.02;;;0.85;;
8129;SDS011;4106;52.532;13.408;2022-09-03T02:12:13;0.73;;;0.73;;
8129;SDS011;4106;52.532;13.408;2022-09-03T02:14:39;0.77;;;0.77;;
8129;SDS011;4106;52.532;13.408;2022-09-03T02:17:07;0.80;;;0.80;;
8129;SDS011;4106;52.532;13.408;2022-09-03T02:19:34;0.60;;;0.60;;
8129;SDS011;4106;52.532;13.408;2022-09-03T02:22:02;0.80;;;0.70;;
8129;SDS011;4106;52.532;13.408;2022-09-03T02:24:29;1.00;;;0.90;;
8129;SDS011;4106;52.532;13.408;2022-09-03T02:26:56;0.80;;;0.80;;
8129;SDS011;4106;52.532;13.408;2022-09-03T02:29:23;0.70;;;0.70;;
8129;SDS011;4106;52.532;13.408;2022-09-03T02:31:50;0.98;;;0.98;;
8129;SDS011;4106;52.532;13.408;2022-09-03T02:34:18;0.88;;;0.85;;
8129;SDS011;4106;52.532;13.408;2022-09-03T02:36:45;0.82;;;0.82;;
8129;SDS011;4106;52.532;13.408;2022-09-03T02:39:12;0.95;;;0.93;;
8129;SDS011;4106;52.532;13.408;2022-09-03T02:41:40;0.80;;;0.80;;
8129;SDS011;4106;52.532;13.408;2022-09-03T02:44:08;0.85;;;0.85;;
8129;SDS011;4106;52.532;13.408;2022-09-03T02:46:39;1.05;;;1.00;;
8129;SDS011;4106;52.532;13.408;2022-09-03T02:49:04;0.95;;;0.70;;
8129;SDS011;4106;52.532;13.408;2022-09-03T02:51:34;0.80;;;0.80;;
8129;SDS011;4106;52.532;13.408;2022-09-03T02:54:00;0.93;;;0.70;;
8129;SDS011;4106;52.532;13.408;2022-09-03T02:56:27;0.90;;;0.90;;
8129;SDS011;4106;52.532;13.408;2022-09-03T02:58:55;0.82;;;0.82;;
8129;SDS011;4106;52.532;13.408;2022-09-03T03:01:23;0.80;;;0.80;;
8129;SDS011;4106;52.532;13.408;2022-09-03T03:03:51;0.80;;;0.80;;
8129;SDS011;4106;52.532;13.408;2022-09-03T03:06:19;0.70;;;0.70;;
8129;SDS011;4106;52.532;13.408;2022-09-03T03:08:46;0.88;;;0.88;;
8129;SDS011;4106;52.532;13.408;2022-09-03T03:11:13;0.88;;;0.88;;
8129;SDS011;4106;52.532;13.408;2022-09-03T03:13:40;1.17;;;1.00;;
8129;SDS011;4106;52.532;13.408;2022-09-03T03:16:07;2.40;;;1.10;;
8129;SDS011;4106;52.532;13.408;2022-09-03T03:18:35;1.02;;;0.95;;
8129;SDS011;4106;52.532;13.408;2022-09-03T03:21:04;0.88;;;0.88;;
8129;SDS011;4106;52.532;13.408;2022-09-03T03:23:31;0.82;;;0.82;;
8129;SDS011;4106;52.532;13.408;2022-09-03T03:26:00;1.02;;;0.90;;
8129;SDS011;4106;52.532;13.408;2022-09-03T03:28:26;0.90;;;0.90;;
8129;SDS011;4106;52.532;13.408;2022-09-03T03:30:54;0.85;;;0.80;;
8129;SDS011;4106;52.532;13.408;2022-09-03T03:33:21;0.90;;;0.90;;
8129;SDS011;4106;52.532;13.408;2022-09-03T03:35:48;0.88;;;0.88;;
8129;SDS011;4106;52.532;13.408;2022-09-03T03:38:15;0.80;;;0.80;;
8129;SDS011;4106;52.532;13.408;2022-09-03T03:40:42;0.90;;;0.90;;
8129;SDS011;4106;52.532;13.408;2022-09-03T03:43:10;0.90;;;0.88;;
8129;SDS011;4106;52.532;13.408;2022-09-03T03:45:37;0.90;;;0.90;;
8129;SDS011;4106;52.532;13.408;2022-09-03T03:48:04;1.30;;;0.90;;
8129;SDS011;4106;52.532;13.408;2022-09-03T03:50:31;1.05;;;0.80;;
8129;SDS011;4106;52.532;13.408;2022-09-03T03:52:59;1.17;;;0.95;;
8129;SDS011;4106;52.532;13.408;2022-09-03T03:55:26;0.80;;;0.80;;
8129;SDS011;4106;52.532;13.408;2022-09-03T03:57:54;1.10;;;1.00;;
8129;SDS011;4106;52.532;13.408;2022-09-03T04:00:22;0.77;;;0.77;;
8129;SDS011;4106;52.532;13.408;2022-09-03T04:02:50;0.70;;;0.70;;
8129;SDS011;4106;52.532;13.408;2022-09-03T04:05:17;0.80;;;0.80;;
8129;SDS011;4106;52.532;13.408;2022-09-03T04:07:45;0.88;;;0.88;;
8129;SDS011;4106;52.532;13.408;2022-09-03T04:10:13;0.88;;;0.88;;
8129;SDS011;4106;52.532;13.408;2022-09-03T04:12:41;1.45;;;0.95;;
8129;SDS011;4106;52.532;13.408;2022-09-03T04:15:09;0.80;;;0.80;;
8129;SDS011;4106;52.532;13.408;2022-09-03T04:17:37;0.70;;;0.70;;
8129;SDS011;4106;52.532;13.408;2022-09-03T04:20:04;0.88;;;0.85;;
8129;SDS011;4106;52.532;13.408;2022-09-03T04:22:32;1.00;;;1.00;;
8129;SDS011;4106;52.532;13.408;2022-09-03T04:25:00;0.80;;;0.80;;
8129;SDS011;4106;52.532;13.408;2022-09-03T04:27:28;0.95;;;0.95;;
8129;SDS011;4106;52.532;13.408;2022-09-03T04:29:55;1.98;;;1.05;;
8129;SDS011;4106;52.532;13.408;2022-09-03T04:32:23;0.93;;;0.93;;
8129;SDS011;4106;52.532;13.408;2022-09-03T04:34:56;1.23;;;1.12;;
8129;SDS011;4106;52.532;13.408;2022-09-03T04:37:23;0.90;;;0.90;;
8129;SDS011;4106;52.532;13.408;2022-09-03T04:39:50;0.90;;;0.90;;
8129;SDS011;4106;52.532;13.408;2022-09-03T04:42:18;1.00;;;1.00;;
8129;SDS011;4106;52.532;13.408;2022-09-03T04:44:45;0.90;;;0.90;;
8129;SDS011;4106;52.532;13.408;2022-09-03T04:47:13;1.00;;;1.00;;
8129;SDS011;4106;52.532;13.408;2022-09-03T04:49:40;0.88;;;0.88;;
8129;SDS011;4106;52.532;13.408;2022-09-03T04:52:07;2.42;;;1.00;;
8129;SDS011;4106;52.532;13.408;2022-09-03T04:54:35;0.95;;;0.95;;
8129;SDS011;4106;52.532;13.408;2022-09-03T04:57:02;0.88;;;0.88;;
8129;SDS011;4106;52.532;13.408;2022-09-03T04:59:30;1.12;;;1.00;;
8129;SDS011;4106;52.532;13.408;2022-09-03T05:01:57;0.88;;;0.88;;
8129;SDS011;4106;52.532;13.408;2022-09-03T05:04:24;1.27;;;1.17;;
8129;SDS011;4106;52.532;13.408;2022-09-03T05:06:51;0.93;;;0.93;;
8129;SDS011;4106;52.532;13.408;2022-09-03T05:09:18;2.12;;;0.90;;
8129;SDS011;4106;52.532;13.408;2022-09-03T05:11:46;0.82;;;0.82;;
8129;SDS011;4106;52.532;13.408;2022-09-03T05:14:13;0.82;;;0.82;;
8129;SDS011;4106;52.532;13.408;2022-09-03T05:16:41;1.05;;;1.00;;
8129;SDS011;4106;52.532;13.408;2022-09-03T05:19:08;0.98;;;0.88;;
8129;SDS011;4106;52.532;13.408;2022-09-03T05:21:35;1.42;;;1.12;;
8129;SDS011;4106;52.532;13.408;2022-09-03T05:24:03;1.20;;;1.10;;
8129;SDS011;4106;52.532;13.408;2022-09-03T05:26:31;1.17;;;1.08;;
8129;SDS011;4106;52.532;13.408;2022-09-03T05:28:58;1.10;;;1.10;;
8129;SDS011;4106;52.532;13.408;2022-09-03T05:31:25;1.52;;;1.00;;
8129;SDS011;4106;52.532;13.408;2022-09-03T05:33:53;0.98;;;0.98;;
8129;SDS011;4106;52.532;13.408;2022-09-03T05:36:21;2.37;;;0.93;;
8129;SDS011;4106;52.532;13.408;2022-09-03T05:38:48;0.93;;;0.93;;
8129;SDS011;4106;52.532;13.408;2022-09-03T05:41:15;0.93;;;0.93;;
8129;SDS011;4106;52.532;13.408;2022-09-03T05:43:42;0.90;;;0.90;;
8129;SDS011;4106;52.532;13.408;2022-09-03T05:46:11;0.93;;;0.93;;
8129;SDS011;4106;52.532;13.408;2022-09-03T05:48:38;1.23;;;1.10;;
8129;SDS011;4106;52.532;13.408;2022-09-03T05:51:07;0.98;;;0.90;;
8129;SDS011;4106;52.532;13.408;2022-09-03T05:53:35;2.47;;;1.00;;
8129;SDS011;4106;52.532;13.408;2022-09-03T05:56:04;1.25;;;1.15;;
8129;SDS011;4106;52.532;13.408;2022-09-03T05:58:32;0.88;;;0.88;;
8129;SDS011;4106;52.532;13.408;2022-09-03T06:01:08;1.20;;;1.17;;
8129;SDS011;4106;52.532;13.408;2022-09-03T06:03:33;1.20;;;1.10;;
8129;SDS011;4106;52.532;13.408;2022-09-03T06:06:00;1.65;;;1.25;;
8129;SDS011;4106;52.532;13.408;2022-09-03T06:08:27;1.10;;;1.02;;
8129;SDS011;4106;52.532;13.408;2022-09-03T06:10:57;0.90;;;0.90;;
8129;SDS011;4106;52.532;13.408;2022-09-03T06:13:23;2.05;;;1.00;;
8129;SDS011;4106;52.532;13.408;2022-09-03T06:15:55;1.00;;;1.00;;
8129;SDS011;4106;52.532;13.408;2022-09-03T06:18:23;1.50;;;1.02;;
8129;SDS011;4106;52.532;13.408;2022-09-03T06:20:53;2.15;;;1.00;;
8129;SDS011;4106;52.532;13.408;2022-09-03T06:23:22;0.90;;;0.90;;
8129;SDS011;4106;52.532;13.408;2022-09-03T06:28:26;1.08;;;1.08;;
8129;SDS011;4106;52.532;13.408;2022-09-03T06:30:56;0.65;;;0.65;;
8129;SDS011;4106;52.532;13.408;2022-09-03T06:33:24;0.90;;;0.90;;
8129;SDS011;4106;52.532;13.408;2022-09-03T06:35:53;1.00;;;0.95;;
8129;SDS011;4106;52.532;13.408;2022-09-03T06:38:21;0.90;;;0.90;;
8129;SDS011;4106;52.532;13.408;2022-09-03T06:40:51;1.15;;;0.80;;
8129;SDS011;4106;52.532;13.408;2022-09-03T06:43:19;1.02;;;0.93;;
8129;SDS011;4106;52.532;13.408;2022-09-03T06:45:54;1.30;;;1.20;;
8129;SDS011;4106;52.532;13.408;2022-09-03T06:48:21;1.45;;;1.00;;
8129;SDS011;4106;52.532;13.408;2022-09-03T06:50:54;1.08;;;0.98;;
8129;SDS011;4106;52.532;13.408;2022-09-03T06:53:24;0.82;;;0.82;;
8129;SDS011;4106;52.532;13.408;2022-09-03T06:55:57;1.05;;;0.95;;
8129;SDS011;4106;52.532;13.408;2022-09-03T06:58:24;1.62;;;1.00;;
8129;SDS011;4106;52.532;13.408;2022-09-03T07:00:52;1.17;;;1.05;;
8129;SDS011;4106;52.532;13.408;2022-09-03T07:03:19;0.90;;;0.90;;
8129;SDS011;4106;52.532;13.408;2022-09-03T07:05:46;0.95;;;0.90;;
8129;SDS011;4106;52.532;13.408;2022-09-03T07:08:13;1.00;;;1.00;;
8129;SDS011;4106;52.532;13.408;2022-09-03T07:10:44;5.07;;;1.60;;
8129;SDS011;4106;52.532;13.408;2022-09-03T07:13:08;38.78;;;8.00;;
8129;SDS011;4106;52.532;13.408;2022-09-03T07:15:36;8.50;;;2.87;;
8129;SDS011;4106;52.532;13.408;2022-09-03T07:18:03;0.88;;;0.88;;
8129;SDS011;4106;52.532;13.408;2022-09-03T07:20:30;28.65;;;5.55;;
8129;SDS011;4106;52.532;13.408;2022-09-03T07:22:57;10.90;;;3.62;;
8129;SDS011;4106;52.532;13.408;2022-09-03T07:25:25;4.03;;;1.73;;
8129;SDS011;4106;52.532;13.408;2022-09-03T07:27:52;6.90;;;2.22;;
8129;SDS011;4106;52.532;13.408;2022-09-03T07:30:19;2.12;;;1.23;;
8129;SDS011;4106;52.532;13.408;2022-09-03T07:32:46;0.80;;;0.80;;
8129;SDS011;4106;52.532;13.408;2022-09-03T07:35:13;12.80;;;3.35;;
8129;SDS011;4106;52.532;13.408;2022-09-03T07:37:41;2.15;;;1.10;;
8129;SDS011;4106;52.532;13.408;2022-09-03T07:40:08;6.37;;;1.98;;
8129;SDS011;4106;52.532;13.408;2022-09-03T07:42:36;7.30;;;2.30;;
8129;SDS011;4106;52.532;13.408;2022-09-03T07:45:05;8.52;;;2.55;;
8129;SDS011;4106;52.532;13.408;2022-09-03T07:47:33;5.00;;;1.40;;
8129;SDS011;4106;52.532;13.408;2022-09-03T07:50:00;3.10;;;1.60;;
8129;SDS011;4106;52.532;13.408;2022-09-03T07:52:27;1.23;;;1.12;;
8129;SDS011;4106;52.532;13.408;2022-09-03T07:54:54;1.17;;;1.02;;
8129;SDS011;4106;52.532;13.408;2022-09-03T07:57:22;0.90;;;0.90;;
8129;SDS011;4106;52.532;13.408;2022-09-03T07:59:49;0.73;;;0.70;;
8129;SDS011;4106;52.532;13.408;2022-09-03T08:02:16;0.85;;;0.85;;
8129;SDS011;4106;52.532;13.408;2022-09-03T08:04:44;0.73;;;0.60;;
8129;SDS011;4106;52.532;13.408;2022-09-03T08:07:11;2.72;;;1.20;;
8129;SDS011;4106;52.532;13.408;2022-09-03T08:09:39;0.88;;;0.88;;
8129;SDS011;4106;52.532;13.408;2022-09-03T08:12:07;1.00;;;0.80;;
8129;SDS011;4106;52.532;13.408;2022-09-03T08:14:35;1.70;;;1.15;;
8129;SDS011;4106;52.532;13.408;2022-09-03T08:17:03;1.15;;;1.00;;
8129;SDS011;4106;52.532;13.408;2022-09-03T08:19:30;1.33;;;0.98;;
8129;SDS011;4106;52.532;13.408;2022-09-03T08:21:58;2.35;;;1.20;;
8129;SDS011;4106;52.532;13.408;2022-09-03T08:24:25;0.60;;;0.60;;
8129;SDS011;4106;52.532;13.408;2022-09-03T08:26:52;0.93;;;0.80;;
8129;SDS011;4106;52.532;13.408;2022-09-03T08:29:19;5.20;;;1.70;;
8129;SDS011;4106;52.532;13.408;2022-09-03T08:31:46;1.65;;;1.17;;
8129;SDS011;4106;52.532;13.408;2022-09-03T08:34:13;1.92;;;1.02;;
8129;SDS011;4106;52.532;13.408;2022-09-03T08:36:41;1.33;;;1.23;;
8129;SDS011;4106;52.532;13.408;2022-09-03T08:39:08;3.10;;;1.30;;
8129;SDS011;4106;52.532;13.408;2022-09-03T08:44:19;1.42;;;1.30;;
8129;SDS011;4106;52.532;13.408;2022-09-03T08:47:06;1.45;;;1.10;;
8129;SDS011;4106;52.532;13.408;2022-09-03T08:49:55;1.90;;;1.33;;
8129;SDS011;4106;52.532;13.408;2022-09-03T08:52:27;1.10;;;0.90;;
8129;SDS011;4106;52.532;13.408;2022-09-03T08:55:13;1.60;;;1.00;;
8129;SDS011;4106;52.532;13.408;2022-09-03T08:58:13;2.30;;;1.40;;
8129;SDS011;4106;52.532;13.408;2022-09-03T09:09:30;1.27;;;1.17;;
8129;SDS011;4106;52.532;13.408;2022-09-03T09:14:25;1.23;;;1.12;;
8129;SDS011;4106;52.532;13.408;2022-09-03T09:16:56;2.40;;;1.20;;
8129;SDS011;4106;52.532;13.408;2022-09-03T09:22:23;1.00;;;0.88;;
8129;SDS011;4106;52.532;13.408;2022-09-03T09:25:03;1.20;;;1.10;;
8129;SDS011;4106;52.532;13.408;2022-09-03T09:27:28;1.77;;;0.80;;
8129;SDS011;4106;52.532;13.408;2022-09-03T09:29:55;1.37;;;1.20;;
8129;SDS011;4106;52.532;13.408;2022-09-03T09:32:22;0.93;;;0.93;;
8129;SDS011;4106;52.532;13.408;2022-09-03T09:34:50;0.90;;;0.90;;
8129;SDS011;4106;52.532;13.408;2022-09-03T09:37:17;1.67;;;1.10;;
8129;SDS011;4106;52.532;13.408;2022-09-03T09:42:21;1.08;;;1.00;;
8129;SDS011;4106;52.532;13.408;2022-09-03T09:44:48;5.62;;;1.75;;
8129;SDS011;4106;52.532;13.408;2022-09-03T09:47:20;1.92;;;1.40;;
8129;SDS011;4106;52.532;13.408;2022-09-03T09:49:51;2.70;;;1.45;;
8129;SDS011;4106;52.532;13.408;2022-09-03T09:52:17;3.08;;;1.40;;
8129;SDS011;4106;52.532;13.408;2022-09-03T09:54:45;1.70;;;1.35;;
8129;SDS011;4106;52.532;13.408;2022-09-03T09:57:15;1.77;;;1.67;;
8129;SDS011;4106;52.532;13.408;2022-09-03T09:59:43;1.58;;;1.30;;
8129;SDS011;4106;52.532;13.408;2022-09-03T10:02:13;0.80;;;0.80;;
8129;SDS011;4106;52.532;13.408;2022-09-03T10:04:38;21.23;;;4.82;;
8129;SDS011;4106;52.532;13.408;2022-09-03T10:07:16;4.40;;;1.45;;
8129;SDS011;4106;52.532;13.408;2022-09-03T10:09:40;4.30;;;1.85;;
8129;SDS011;4106;52.532;13.408;2022-09-03T10:12:10;12.75;;;3.00;;
8129;SDS011;4106;52.532;13.408;2022-09-03T10:14:41;92.68;;;19.02;;
8129;SDS011;4106;52.532;13.408;2022-09-03T10:17:10;78.55;;;14.73;;
8129;SDS011;4106;52.532;13.408;2022-09-03T10:19:42;71.00;;;15.20;;
8129;SDS011;4106;52.532;13.408;2022-09-03T10:22:11;51.15;;;11.15;;
8129;SDS011;4106;52.532;13.408;2022-09-03T10:24:57;32.00;;;7.40;;
8129;SDS011;4106;52.532;13.408;2022-09-03T10:27:23;47.40;;;10.60;;
8129;SDS011;4106;52.532;13.408;2022-09-03T10:29:50;19.95;;;4.15;;
8129;SDS011;4106;52.532;13.408;2022-09-03T10:32:21;18.42;;;4.22;;
8129;SDS011;4106;52.532;13.408;2022-09-03T10:34:49;12.18;;;3.65;;
8129;SDS011;4106;52.532;13.408;2022-09-03T10:37:18;9.00;;;2.60;;
8129;SDS011;4106;52.532;13.408;2022-09-03T10:39:55;8.57;;;2.08;;
8129;SDS011;4106;52.532;13.408;2022-09-03T10:42:30;4.78;;;1.92;;
8129;SDS011;4106;52.532;13.408;2022-09-03T10:44:59;8.27;;;2.30;;
8129;SDS011;4106;52.532;13.408;2022-09-03T10:47:35;1.70;;;1.52;;
8129;SDS011;4106;52.532;13.408;2022-09-03T10:50:07;6.70;;;1.95;;
8129;SDS011;4106;52.532;13.408;2022-09-03T10:52:33;1.58;;;1.33;;
8129;SDS011;4106;52.532;13.408;2022-09-03T10:56:13;2.87;;;1.25;;
8129;SDS011;4106;52.532;13.408;2022-09-03T10:57:50;1.33;;;1.20;;
8129;SDS011;4106;52.532;13.408;2022-09-03T11:00:15;5.00;;;1.45;;
8129;SDS011;4106;52.532;13.408;2022-09-03T11:03:21;4.78;;;1.50;;
8129;SDS011;4106;52.532;13.408;2022-09-03T11:05:28;1.25;;;1.15;;
8129;SDS011;4106;52.532;13.408;2022-09-03T11:08:06;3.55;;;1.30;;
8129;SDS011;4106;52.532;13.408;2022-09-03T11:10:27;2.35;;;1.10;;
8129;SDS011;4106;52.532;13.408;2022-09-03T11:13:05;2.58;;;1.40;;
8129;SDS011;4106;52.532;13.408;2022-09-03T11:15:37;2.55;;;1.27;;
8129;SDS011;4106;52.532;13.408;2022-09-03T11:20:52;2.08;;;1.40;;
8129;SDS011;4106;52.532;13.408;2022-09-03T11:23:18;2.10;;;1.30;;
8129;SDS011;4106;52.532;13.408;2022-09-03T11:25:48;3.33;;;1.30;;
8129;SDS011;4106;52.532;13.408;2022-09-03T11:28:19;2.95;;;1.30;;
8129;SDS011;4106;52.532;13.408;2022-09-03T11:31:05;3.30;;;1.40;;
8129;SDS011;4106;52.532;13.408;2022-09-03T11:33:31;1.33;;;1.20;;
8129;SDS011;4106;52.532;13.408;2022-09-03T11:35:58;1.17;;;1.17;;
8129;SDS011;4106;52.532;13.408;2022-09-03T11:38:27;1.95;;;1.40;;
8129;SDS011;4106;52.532;13.408;2022-09-03T11:40:56;2.40;;;1.12;;
8129;SDS011;4106;52.532;13.408;2022-09-03T11:43:27;2.53;;;1.12;;
8129;SDS011;4106;52.532;13.408;2022-09-03T11:46:01;1.35;;;1.23;;
8129;SDS011;4106;52.532;13.408;2022-09-03T11:48:44;1.17;;;1.08;;
8129;SDS011;4106;52.532;13.408;2022-09-03T11:51:17;1.62;;;1.40;;
8129;SDS011;4106;52.532;13.408;2022-09-03T11:56:19;2.00;;;1.23;;
8129;SDS011;4106;52.532;13.408;2022-09-03T11:58:46;2.75;;;1.50;;
8129;SDS011;4106;52.532;13.408;2022-09-03T12:01:14;1.40;;;1.30;;
8129;SDS011;4106;52.532;13.408;2022-09-03T12:03:42;1.98;;;1.40;;
8129;SDS011;4106;52.532;13.408;2022-09-03T12:09:01;1.00;;;0.95;;
8129;SDS011;4106;52.532;13.408;2022-09-03T12:12:07;4.40;;;1.48;;
8129;SDS011;4106;52.532;13.408;2022-09-03T12:14:19;1.83;;;1.17;;
8129;SDS011;4106;52.532;13.408;2022-09-03T12:16:56;2.25;;;1.20;;
8129;SDS011;4106;52.532;13.408;2022-09-03T12:22:12;1.50;;;1.40;;
8129;SDS011;4106;52.532;13.408;2022-09-03T12:24:39;2.05;;;1.25;;
8129;SDS011;4106;52.532;13.408;2022-09-03T12:27:07;3.75;;;1.30;;
8129;SDS011;4106;52.532;13.408;2022-09-03T12:29:34;1.83;;;1.42;;
8129;SDS011;4106;52.532;13.408;2022-09-03T12:32:05;3.12;;;1.10;;
8129;SDS011;4106;52.532;13.408;2022-09-03T12:34:32;1.67;;;1.33;;
8129;SDS011;4106;52.532;13.408;2022-09-03T12:37:01;1.60;;;1.10;;
8129;SDS011;4106;52.532;13.408;2022-09-03T12:39:27;1.40;;;1.25;;
8129;SDS011;4106;52.532;13.408;2022-09-03T12:42:03;2.05;;;1.25;;
8129;SDS011;4106;52.532;13.408;2022-09-03T12:44:39;1.65;;;1.55;;
8129;SDS011;4106;52.532;13.408;2022-09-03T12:47:10;1.00;;;1.00;;
8129;SDS011;4106;52.532;13.408;2022-09-03T12:49:39;1.15;;;1.05;;
8129;SDS011;4106;52.532;13.408;2022-09-03T12:52:10;1.37;;;1.00;;
8129;SDS011;4106;52.532;13.408;2022-09-03T12:54:36;1.70;;;1.20;;
8129;SDS011;4106;52.532;13.408;2022-09-03T12:57:02;1.62;;;1.33;;
8129;SDS011;4106;52.532;13.408;2022-09-03T12:59:30;1.30;;;1.20;;
8129;SDS011;4106;52.532;13.408;2022-09-03T13:01:59;1.87;;;1.08;;
8129;SDS011;4106;52.532;13.408;2022-09-03T13:04:27;0.80;;;0.80;;
8129;SDS011;4106;52.532;13.408;2022-09-03T13:06:58;1.80;;;1.02;;
8129;SDS011;4106;52.532;13.408;2022-09-03T13:09:23;1.20;;;1.10;;
8129;SDS011;4106;52.532;13.408;2022-09-03T13:11:50;1.37;;;1.37;;
8129;SDS011;4106;52.532;13.408;2022-09-03T13:14:17;4.60;;;1.58;;
8129;SDS011;4106;52.532;13.408;2022-09-03T13:19:32;2.22;;;1.30;;
8129;SDS011;4106;52.532;13.408;2022-09-03T13:25:24;1.20;;;1.10;;
8129;SDS011;4106;52.532;13.408;2022-09-03T13:27:55;2.47;;;0.93;;
8129;SDS011;4106;52.532;13.408;2022-09-03T13:30:21;1.62;;;1.00;;
8129;SDS011;4106;52.532;13.408;2022-09-03T13:32:55;0.95;;;0.95;;
8129;SDS011;4106;52.532;13.408;2022-09-03T13:35:27;1.30;;;1.20;;
8129;SDS011;4106;52.532;13.408;2022-09-03T13:37:54;1.80;;;1.30;;
8129;SDS011;4106;52.532;13.408;2022-09-03T13:40:26;1.58;;;1.27;;
8129;SDS011;4106;52.532;13.408;2022-09-03T13:43:01;2.20;;;1.15;;
8129;SDS011;4106;52.532;13.408;2022-09-03T13:45:44;2.37;;;1.17;;
8129;SDS011;4106;52.532;13.408;2022-09-03T13:48:15;4.60;;;1.50;;
8129;SDS011;4106;52.532;13.408;2022-09-03T13:50:48;2.28;;;1.35;;
8129;SDS011;4106;52.532;13.408;2022-09-03T13:53:17;1.95;;;1.30;;
8129;SDS011;4106;52.532;13.408;2022-09-03T13:55:46;3.53;;;1.40;;
8129;SDS011;4106;52.532;13.408;2022-09-03T14:00:53;1.58;;;1.33;;
8129;SDS011;4106;52.532;13.408;2022-09-03T14:03:24;2.15;;;1.20;;
8129;SDS011;4106;52.532;13.408;2022-09-03T14:11:22;3.50;;;1.17;;
8129;SDS011;4106;52.532;13.408;2022-09-03T14:14:01;1.65;;;1.27;;
8129;SDS011;4106;52.532;13.408;2022-09-03T14:16:37;1.52;;;1.27;;
8129;SDS011;4106;52.532;13.408;2022-09-03T14:19:05;1.25;;;1.20;;
8129;SDS011;4106;52.532;13.408;2022-09-03T14:21:35;1.15;;;1.10;;
8129;SDS011;4106;52.532;13.408;2022-09-03T14:24:06;3.70;;;1.30;;
8129;SDS011;4106;52.532;13.408;2022-09-03T14:26:33;2.17;;;1.30;;
8129;SDS011;4106;52.532;13.408;2022-09-03T14:31:51;2.17;;;1.20;;
8129;SDS011;4106;52.532;13.408;2022-09-03T14:34:22;1.42;;;0.98;;
8129;SDS011;4106;52.532;13.408;2022-09-03T14:37:01;1.40;;;1.15;;
8129;SDS011;4106;52.532;13.408;2022-09-03T14:39:37;0.93;;;0.93;;
8129;SDS011;4106;52.532;13.408;2022-09-03T14:42:26;1.52;;;1.42;;
8129;SDS011;4106;52.532;13.408;2022-09-03T14:44:59;1.27;;;1.17;;
8129;SDS011;4106;52.532;13.408;2022-09-03T14:52:52;2.00;;;0.93;;
8129;SDS011;4106;52.532;13.408;2022-09-03T14:58:17;0.90;;;0.90;;
8129;SDS011;4106;52.532;13.408;2022-09-03T15:01:03;2.05;;;1.35;;
8129;SDS011;4106;52.532;13.408;2022-09-03T15:03:40;1.33;;;1.20;;
8129;SDS011;4106;52.532;13.408;2022-09-03T15:06:16;3.17;;;1.15;;
8129;SDS011;4106;52.532;13.408;2022-09-03T15:09:02;1.80;;;1.23;;
8129;SDS011;4106;52.532;13.408;2022-09-03T15:11:27;2.37;;;1.25;;
8129;SDS011;4106;52.532;13.408;2022-09-03T15:13:53;3.17;;;1.27;;
8129;SDS011;4106;52.532;13.408;2022-09-03T15:16:24;1.35;;;1.25;;
8129;SDS011;4106;52.532;13.408;2022-09-03T15:19:07;2.25;;;1.10;;
8129;SDS011;4106;52.532;13.408;2022-09-03T15:21:57;2.65;;;1.40;;
8129;SDS011;4106;52.532;13.408;2022-09-03T15:27:15;2.83;;;1.23;;
8129;SDS011;4106;52.532;13.408;2022-09-03T15:32:38;1.50;;;1.40;;
8129;SDS011;4106;52.532;13.408;2022-09-03T15:35:06;1.60;;;1.50;;
8129;SDS011;4106;52.532;13.408;2022-09-03T15:37:38;1.55;;;1.15;;
8129;SDS011;4106;52.532;13.408;2022-09-03T15:40:18;1.58;;;1.48;;
8129;SDS011;4106;52.532;13.408;2022-09-03T15:42:54;1.95;;;1.33;;
8129;SDS011;4106;52.532;13.408;2022-09-03T15:45:30;1.50;;;1.40;;
8129;SDS011;4106;52.532;13.408;2022-09-03T15:48:15;1.55;;;1.45;;
8129;SDS011;4106;52.532;13.408;2022-09-03T15:54:22;1.50;;;1.40;;
8129;SDS011;4106;52.532;13.408;2022-09-03T15:56:05;1.50;;;1.40;;
8129;SDS011;4106;52.532;13.408;2022-09-03T15:58:33;1.40;;;1.30;;
8129;SDS011;4106;52.532;13.408;2022-09-03T16:01:05;1.30;;;1.20;;
8129;SDS011;4106;52.532;13.408;2022-09-03T16:06:31;1.55;;;1.37;;
8129;SDS011;4106;52.532;13.408;2022-09-03T16:08:58;2.05;;;1.30;;
8129;SDS011;4106;52.532;13.408;2022-09-03T16:11:33;2.08;;;1.25;;
8129;SDS011;4106;52.532;13.408;2022-09-03T16:14:04;1.52;;;1.37;;
8129;SDS011;4106;52.532;13.408;2022-09-03T16:16:40;1.50;;;1.40;;
8129;SDS011;4106;52.532;13.408;2022-09-03T16:19:10;1.50;;;1.40;;
8129;SDS011;4106;52.532;13.408;2022-09-03T16:21:45;1.50;;;1.40;;
8129;SDS011;4106;52.532;13.408;2022-09-03T16:24:15;1.37;;;1.37;;
8129;SDS011;4106;52.532;13.408;2022-09-03T16:26:59;2.58;;;1.45;;
8129;SDS011;4106;52.532;13.408;2022-09-03T16:29:26;2.67;;;1.48;;
8129;SDS011;4106;52.532;13.408;2022-09-03T16:32:04;1.50;;;1.35;;
8129;SDS011;4106;52.532;13.408;2022-09-03T16:34:45;1.48;;;1.30;;
8129;SDS011;4106;52.532;13.408;2022-09-03T16:37:17;1.90;;;1.50;;
8129;SDS011;4106;52.532;13.408;2022-09-03T16:39:45;1.35;;;1.25;;
8129;SDS011;4106;52.532;13.408;2022-09-03T16:42:13;3.17;;;1.37;;
8129;SDS011;4106;52.532;13.408;2022-09-03T16:45:02;1.55;;;1.45;;